createdAt,value
2022-09-12T00:04:54.888Z,13.44
2022-09-12T00:14:54.916Z,13.15
2022-09-12T00:24:55.235Z,12.92
2022-09-12T00:34:55.324Z,13.00
2022-09-12T00:44:55.482Z,13.25
2022-09-12T00:54:55.514Z,13.11
2022-09-12T01:04:55.825Z,13.12
2022-09-12T01:14:55.856Z,13.36
2022-09-12T01:24:56.175Z,13.78
2022-09-12T01:34:56.245Z,13.57
2022-09-12T01:44:56.525Z,13.48
2022-09-12T01:54:56.547Z,13.39
2022-09-12T02:04:56.862Z,13.29
2022-09-12T02:14:56.896Z,13.30
2022-09-12T02:24:57.222Z,13.07
2022-09-12T02:34:57.250Z,12.95
2022-09-12T02:44:57.675Z,12.64
2022-09-12T02:54:57.699Z,11.91
2022-09-12T03:04:58.023Z,11.69
2022-09-12T03:14:58.054Z,12.28
2022-09-12T03:24:58.384Z,12.78
2022-09-12T03:34:58.399Z,12.59
2022-09-12T03:44:58.717Z,12.57
2022-09-12T03:54:58.759Z,12.32
2022-09-12T04:04:59.067Z,11.90
2022-09-12T04:14:59.096Z,12.20
2022-09-12T04:24:59.424Z,12.05
2022-09-12T04:34:59.451Z,11.35
2022-09-12T04:44:59.760Z,11.85
2022-09-12T04:54:59.775Z,11.95
2022-09-12T05:05:00.100Z,11.40
2022-09-12T05:15:00.131Z,11.09
2022-09-12T05:25:00.459Z,10.99
2022-09-12T05:35:00.514Z,10.97
2022-09-12T05:45:00.809Z,10.99
2022-09-12T05:55:00.826Z,11.06
2022-09-12T06:05:01.165Z,11.28
2022-09-12T06:15:01.195Z,12.01
2022-09-12T06:25:03.558Z,13.42
2022-09-12T06:35:01.589Z,13.91
2022-09-12T06:45:01.871Z,14.21
2022-09-12T06:55:01.897Z,14.50
2022-09-12T07:05:02.206Z,14.80
2022-09-12T07:15:02.248Z,15.39
2022-09-12T07:25:02.563Z,15.84
2022-09-12T07:35:02.594Z,16.46
2022-09-12T07:45:02.914Z,16.60
2022-09-12T07:55:02.956Z,16.73
2022-09-12T08:05:03.266Z,17.15
2022-09-12T08:15:03.297Z,17.59
2022-09-12T08:25:03.625Z,18.21
2022-09-12T08:35:03.655Z,18.52
2022-09-12T08:45:03.972Z,19.07
2022-09-12T08:55:03.997Z,19.88
2022-09-12T09:05:04.313Z,20.05
2022-09-12T09:15:04.335Z,21.14
2022-09-12T09:25:04.668Z,21.46
2022-09-12T09:35:04.697Z,21.86
2022-09-12T09:45:05.006Z,22.28
2022-09-12T09:55:05.077Z,22.27
2022-09-12T10:05:05.150Z,22.27
2022-09-12T10:15:05.175Z,22.97
2022-09-12T10:25:05.499Z,23.15
2022-09-12T10:35:05.530Z,24.16
2022-09-12T10:45:05.956Z,24.27
2022-09-12T10:55:05.997Z,24.37
2022-09-12T11:05:06.306Z,24.34
2022-09-12T11:15:06.343Z,24.53
2022-09-12T11:25:06.657Z,24.77
2022-09-12T11:35:06.689Z,25.42
2022-09-12T11:45:09.221Z,25.10
2022-09-12T11:55:07.062Z,24.73
2022-09-12T12:05:07.353Z,24.96
2022-09-12T12:15:07.378Z,25.36
2022-09-12T12:25:07.714Z,25.88
2022-09-12T12:35:07.736Z,25.79
2022-09-12T12:45:10.066Z,25.87
2022-09-12T12:55:08.110Z,26.06
2022-09-12T13:05:08.431Z,26.25
2022-09-12T13:15:08.462Z,26.20
2022-09-12T13:25:08.752Z,26.55
2022-09-12T13:35:08.796Z,26.09
2022-09-12T13:45:09.114Z,26.77
2022-09-12T13:55:09.147Z,26.54
2022-09-12T14:05:09.461Z,26.51
2022-09-12T14:15:09.493Z,27.13
2022-09-12T14:25:09.804Z,26.54
2022-09-12T14:35:09.843Z,26.77
2022-09-12T14:45:10.160Z,26.63
2022-09-12T14:55:10.195Z,26.85
2022-09-12T15:05:10.607Z,26.26
2022-09-12T15:15:11.668Z,25.83
2022-09-12T15:25:10.950Z,25.83
2022-09-12T15:35:11.086Z,25.69
2022-09-12T15:45:11.623Z,25.62
2022-09-12T15:55:11.261Z,24.95
2022-09-12T16:05:11.552Z,24.40
2022-09-12T16:15:11.585Z,23.42
2022-09-12T16:25:11.695Z,22.90
2022-09-12T16:35:11.837Z,22.55
2022-09-12T16:45:12.254Z,22.43
2022-09-12T16:55:12.268Z,21.99
2022-09-12T17:05:12.601Z,21.62
2022-09-12T17:15:12.621Z,21.29
2022-09-12T17:25:20.135Z,21.13
2022-09-12T17:35:13.161Z,20.97
2022-09-12T17:45:17.730Z,20.73
2022-09-12T17:55:14.262Z,20.43
2022-09-12T18:05:13.534Z,20.47
2022-09-12T18:15:13.742Z,19.77
2022-09-12T18:25:14.043Z,19.39
2022-09-12T18:35:14.243Z,18.98
2022-09-12T18:45:14.399Z,18.17
2022-09-12T18:55:14.433Z,17.71
2022-09-12T19:05:14.867Z,17.71
2022-09-12T19:15:14.961Z,17.54
2022-09-12T19:25:14.951Z,17.97
2022-09-12T19:35:15.162Z,17.99
2022-09-12T19:45:15.372Z,17.64
2022-09-12T19:55:15.433Z,17.86
2022-09-12T20:05:15.747Z,17.64
2022-09-12T20:15:15.801Z,17.75
2022-09-12T20:25:16.102Z,17.77
2022-09-12T20:35:16.132Z,17.79
2022-09-12T20:45:16.457Z,17.87
2022-09-12T20:55:16.480Z,17.81
2022-09-12T21:05:16.805Z,17.89
2022-09-12T21:15:16.845Z,17.84
2022-09-12T21:25:17.155Z,17.68
2022-09-12T21:35:17.192Z,17.86
2022-09-12T21:45:17.500Z,17.77
2022-09-12T21:55:17.504Z,18.39
2022-09-12T22:05:17.862Z,17.90
2022-09-12T22:15:39.540Z,17.51
2022-09-12T22:25:19.153Z,17.14
2022-09-12T22:35:18.474Z,16.79
2022-09-12T22:45:18.519Z,17.03
2022-09-12T22:55:18.843Z,16.96
2022-09-12T23:05:18.867Z,17.08
2022-09-12T23:15:19.170Z,17.07
2022-09-12T23:25:19.199Z,16.96
2022-09-12T23:35:19.535Z,16.93
2022-09-12T23:45:19.559Z,16.89
2022-09-12T23:55:19.879Z,16.79
